Reedtown, Ohio
Current Conditions -  °F | °C
As of 1:52 AM on Tuesday 21 Oct 2014 (Local Time) from KMFD Reporting Station
Haze Haze  
Wind Chill: 51°   Ceiling: 700
Heat Index: 51°   Visibility: 4mi
Dew Point: 50°   Wind: 5mph
Humidity: 96%   Direction: 270°W
Pressure: 29.85"   Gusts: NA
Location:  41.0654°N, 82.876°W
Report Text: KMFD 210552Z AUTO 27004KT 4SM BR OVC007 11/10 A2985 RMK AO2 CIG 006V010 SLP109 60001 T01060100 10111 20106 58006
Loading
Personal Weather Stations






























Interactive Weather Map
Tropical Storm Tracking
New forecast layout! Learn more

10-Day Weather Forecast

Advertisements
Track Severe Weather on mobile